sensor_id;sensor_type;location;lat;lon;timestamp;pressure;altitude;pressure_sealevel;temperature;humidity
42887;BME280;29032;56.028;92.904;2024-01-27T00:00:38;101266.31;;;-13.91;43.49
42887;BME280;29032;56.028;92.904;2024-01-27T00:05:40;101270.06;;;-13.95;43.87
42887;BME280;29032;56.028;92.904;2024-01-27T00:10:43;101243.56;;;-14.09;43.89
42887;BME280;29032;56.028;92.904;2024-01-27T00:15:46;101277.44;;;-13.92;43.96
42887;BME280;29032;56.028;92.904;2024-01-27T00:20:48;101276.94;;;-13.82;43.90
42887;BME280;29032;56.028;92.904;2024-01-27T00:25:51;101279.28;;;-13.81;44.08
42887;BME280;29032;56.028;92.904;2024-01-27T00:30:54;101283.81;;;-13.69;43.51
42887;BME280;29032;56.028;92.904;2024-01-27T00:35:56;101276.75;;;-13.45;43.42
42887;BME280;29032;56.028;92.904;2024-01-27T00:41:00;101287.50;;;-13.14;42.80
42887;BME280;29032;56.028;92.904;2024-01-27T00:46:02;101294.94;;;-12.92;42.29
42887;BME280;29032;56.028;92.904;2024-01-27T00:51:05;101303.81;;;-12.75;42.45
42887;BME280;29032;56.028;92.904;2024-01-27T00:56:09;101299.28;;;-12.71;42.16
42887;BME280;29032;56.028;92.904;2024-01-27T01:01:11;101303.09;;;-12.72;42.18
42887;BME280;29032;56.028;92.904;2024-01-27T01:06:13;101314.06;;;-12.65;41.57
42887;BME280;29032;56.028;92.904;2024-01-27T01:11:17;101321.88;;;-12.60;41.34
42887;BME280;29032;56.028;92.904;2024-01-27T01:16:19;101320.81;;;-12.55;41.23
42887;BME280;29032;56.028;92.904;2024-01-27T01:21:21;101320.53;;;-12.50;40.98
42887;BME280;29032;56.028;92.904;2024-01-27T01:26:25;101317.94;;;-12.63;40.36
42887;BME280;29032;56.028;92.904;2024-01-27T01:31:27;101328.59;;;-12.85;40.11
42887;BME280;29032;56.028;92.904;2024-01-27T01:36:29;101343.63;;;-13.16;40.28
42887;BME280;29032;56.028;92.904;2024-01-27T01:41:33;101338.06;;;-13.23;41.03
42887;BME280;29032;56.028;92.904;2024-01-27T01:46:35;101341.97;;;-13.36;41.38
42887;BME280;29032;56.028;92.904;2024-01-27T01:51:37;101345.66;;;-13.57;41.66
42887;BME280;29032;56.028;92.904;2024-01-27T01:56:42;101352.41;;;-13.91;42.19
42887;BME280;29032;56.028;92.904;2024-01-27T02:01:44;101351.22;;;-14.06;43.33
42887;BME280;29032;56.028;92.904;2024-01-27T02:06:46;101352.69;;;-14.08;43.23
42887;BME280;29032;56.028;92.904;2024-01-27T02:11:50;101347.88;;;-14.03;43.48
42887;BME280;29032;56.028;92.904;2024-01-27T02:16:52;101356.81;;;-13.98;43.60
42887;BME280;29032;56.028;92.904;2024-01-27T02:21:54;101367.97;;;-13.84;43.15
42887;BME280;29032;56.028;92.904;2024-01-27T02:26:58;101364.84;;;-13.58;42.89
42887;BME280;29032;56.028;92.904;2024-01-27T02:32:00;101362.19;;;-13.42;42.22
42887;BME280;29032;56.028;92.904;2024-01-27T02:37:02;101362.38;;;-13.35;41.97
42887;BME280;29032;56.028;92.904;2024-01-27T02:42:06;101361.09;;;-13.26;42.42
42887;BME280;29032;56.028;92.904;2024-01-27T02:47:08;101366.56;;;-13.22;42.07
42887;BME280;29032;56.028;92.904;2024-01-27T02:52:10;101368.81;;;-13.24;41.65
42887;BME280;29032;56.028;92.904;2024-01-27T02:57:14;101370.28;;;-13.27;41.59
42887;BME280;29032;56.028;92.904;2024-01-27T03:02:16;101371.94;;;-13.22;41.42
42887;BME280;29032;56.028;92.904;2024-01-27T03:07:18;101375.84;;;-13.35;41.31
42887;BME280;29032;56.028;92.904;2024-01-27T03:12:22;101383.44;;;-13.25;40.75
42887;BME280;29032;56.028;92.904;2024-01-27T03:17:24;101380.66;;;-13.13;40.71
42887;BME280;29032;56.028;92.904;2024-01-27T03:22:26;101388.41;;;-12.96;40.82
42887;BME280;29032;56.028;92.904;2024-01-27T03:27:30;101384.69;;;-12.75;41.02
42887;BME280;29032;56.028;92.904;2024-01-27T03:32:32;101398.22;;;-12.56;40.16
42887;BME280;29032;56.028;92.904;2024-01-27T03:37:34;101401.75;;;-12.36;40.19
42887;BME280;29032;56.028;92.904;2024-01-27T03:42:38;101403.72;;;-12.17;40.41
42887;BME280;29032;56.028;92.904;2024-01-27T03:47:40;101408.50;;;-12.11;40.25
42887;BME280;29032;56.028;92.904;2024-01-27T03:52:42;101409.19;;;-11.98;40.04
42887;BME280;29032;56.028;92.904;2024-01-27T03:57:46;101405.19;;;-11.85;40.30
42887;BME280;29032;56.028;92.904;2024-01-27T04:02:48;101409.88;;;-11.82;39.96
42887;BME280;29032;56.028;92.904;2024-01-27T04:07:50;101421.53;;;-11.77;39.79
42887;BME280;29032;56.028;92.904;2024-01-27T04:12:54;101421.44;;;-12.00;40.45
42887;BME280;29032;56.028;92.904;2024-01-27T04:17:56;101428.19;;;-12.10;40.95
42887;BME280;29032;56.028;92.904;2024-01-27T04:22:58;101426.25;;;-12.10;40.03
42887;BME280;29032;56.028;92.904;2024-01-27T04:28:02;101425.31;;;-12.17;39.81
42887;BME280;29032;56.028;92.904;2024-01-27T04:33:04;101429.00;;;-12.25;40.36
42887;BME280;29032;56.028;92.904;2024-01-27T04:38:08;101427.91;;;-12.05;40.25
42887;BME280;29032;56.028;92.904;2024-01-27T04:43:14;101429.03;;;-11.87;40.71
42887;BME280;29032;56.028;92.904;2024-01-27T04:48:17;101427.50;;;-11.68;40.39
42887;BME280;29032;56.028;92.904;2024-01-27T04:53:19;101431.28;;;-11.54;40.20
42887;BME280;29032;56.028;92.904;2024-01-27T04:58:23;101429.84;;;-11.47;40.01
42887;BME280;29032;56.028;92.904;2024-01-27T05:03:25;101429.06;;;-11.48;40.30
42887;BME280;29032;56.028;92.904;2024-01-27T05:08:27;101420.94;;;-11.29;40.00
42887;BME280;29032;56.028;92.904;2024-01-27T05:13:31;101426.03;;;-11.04;39.50
42887;BME280;29032;56.028;92.904;2024-01-27T05:18:33;101422.44;;;-10.89;39.07
42887;BME280;29032;56.028;92.904;2024-01-27T05:23:35;101430.91;;;-10.67;38.73
42887;BME280;29032;56.028;92.904;2024-01-27T05:28:39;101432.00;;;-10.49;39.04
42887;BME280;29032;56.028;92.904;2024-01-27T05:33:42;101433.66;;;-10.41;39.59
42887;BME280;29032;56.028;92.904;2024-01-27T05:38:44;101437.34;;;-10.30;38.61
42887;BME280;29032;56.028;92.904;2024-01-27T05:43:47;101419.31;;;-10.19;39.09
42887;BME280;29032;56.028;92.904;2024-01-27T05:48:50;101429.28;;;-9.96;39.26
42887;BME280;29032;56.028;92.904;2024-01-27T05:53:52;101433.41;;;-9.79;38.68
42887;BME280;29032;56.028;92.904;2024-01-27T05:58:55;101432.56;;;-9.53;38.52
42887;BME280;29032;56.028;92.904;2024-01-27T06:03:57;101430.94;;;-9.28;38.10
42887;BME280;29032;56.028;92.904;2024-01-27T06:09:00;101442.81;;;-9.02;38.25
42887;BME280;29032;56.028;92.904;2024-01-27T06:14:03;101424.41;;;-8.83;37.52
42887;BME280;29032;56.028;92.904;2024-01-27T06:19:05;101432.25;;;-8.74;37.45
42887;BME280;29032;56.028;92.904;2024-01-27T06:24:08;101425.31;;;-8.68;36.90
42887;BME280;29032;56.028;92.904;2024-01-27T06:29:11;101422.63;;;-8.64;37.77
42887;BME280;29032;56.028;92.904;2024-01-27T06:34:13;101423.06;;;-8.59;37.32
42887;BME280;29032;56.028;92.904;2024-01-27T06:39:16;101421.63;;;-8.45;37.21
42887;BME280;29032;56.028;92.904;2024-01-27T06:44:19;101424.75;;;-8.43;37.90
42887;BME280;29032;56.028;92.904;2024-01-27T06:49:21;101415.03;;;-8.44;36.91
42887;BME280;29032;56.028;92.904;2024-01-27T06:54:24;101415.00;;;-8.52;37.67
42887;BME280;29032;56.028;92.904;2024-01-27T06:59:27;101403.25;;;-8.63;37.59
42887;BME280;29032;56.028;92.904;2024-01-27T07:04:30;101407.78;;;-8.81;37.97
42887;BME280;29032;56.028;92.904;2024-01-27T07:09:32;101403.13;;;-8.81;38.03
42887;BME280;29032;56.028;92.904;2024-01-27T07:14:35;101408.22;;;-8.72;37.38
42887;BME280;29032;56.028;92.904;2024-01-27T07:19:38;101384.59;;;-8.71;36.90
42887;BME280;29032;56.028;92.904;2024-01-27T07:24:40;101401.88;;;-8.42;37.00
42887;BME280;29032;56.028;92.904;2024-01-27T07:29:43;101389.06;;;-8.42;37.06
42887;BME280;29032;56.028;92.904;2024-01-27T07:34:46;101378.47;;;-8.61;36.72
42887;BME280;29032;56.028;92.904;2024-01-27T07:39:48;101386.25;;;-8.56;37.00
42887;BME280;29032;56.028;92.904;2024-01-27T07:44:51;101375.16;;;-8.37;37.38
42887;BME280;29032;56.028;92.904;2024-01-27T07:49:54;101374.56;;;-8.09;37.20
42887;BME280;29032;56.028;92.904;2024-01-27T07:54:56;101382.84;;;-7.77;37.18
42887;BME280;29032;56.028;92.904;2024-01-27T08:00:00;101381.03;;;-7.37;36.99
42887;BME280;29032;56.028;92.904;2024-01-27T08:05:03;101377.19;;;-7.32;36.97
42887;BME280;29032;56.028;92.904;2024-01-27T08:10:06;101383.31;;;-7.57;36.81
42887;BME280;29032;56.028;92.904;2024-01-27T08:15:11;101394.94;;;-7.67;37.17
42887;BME280;29032;56.028;92.904;2024-01-27T08:20:14;101395.66;;;-7.77;36.42
42887;BME280;29032;56.028;92.904;2024-01-27T08:25:16;101384.69;;;-7.99;36.71
42887;BME280;29032;56.028;92.904;2024-01-27T08:30:20;101388.13;;;-8.09;37.07
42887;BME280;29032;56.028;92.904;2024-01-27T08:35:22;101381.53;;;-8.08;36.87
42887;BME280;29032;56.028;92.904;2024-01-27T08:40:24;101390.88;;;-7.98;36.52
42887;BME280;29032;56.028;92.904;2024-01-27T08:45:28;101405.69;;;-7.88;36.32
42887;BME280;29032;56.028;92.904;2024-01-27T08:50:31;101405.31;;;-7.87;36.36
42887;BME280;29032;56.028;92.904;2024-01-27T08:55:33;101412.66;;;-7.91;36.52
42887;BME280;29032;56.028;92.904;2024-01-27T09:00:37;101414.59;;;-7.91;36.44
42887;BME280;29032;56.028;92.904;2024-01-27T09:05:39;101416.50;;;-8.03;37.28
42887;BME280;29032;56.028;92.904;2024-01-27T09:10:41;101412.91;;;-8.14;37.48
42887;BME280;29032;56.028;92.904;2024-01-27T09:15:45;101414.81;;;-8.25;38.02
42887;BME280;29032;56.028;92.904;2024-01-27T09:20:47;101422.09;;;-8.36;37.25
42887;BME280;29032;56.028;92.904;2024-01-27T09:25:50;101419.31;;;-8.43;37.80
42887;BME280;29032;56.028;92.904;2024-01-27T09:30:53;101423.97;;;-8.40;37.22
42887;BME280;29032;56.028;92.904;2024-01-27T09:35:55;101425.38;;;-8.61;36.87
42887;BME280;29032;56.028;92.904;2024-01-27T09:40:58;101436.72;;;-8.92;37.22
42887;BME280;29032;56.028;92.904;2024-01-27T09:46:02;101424.09;;;-9.15;38.24
42887;BME280;29032;56.028;92.904;2024-01-27T09:51:06;101424.09;;;-9.15;36.96
42887;BME280;29032;56.028;92.904;2024-01-27T09:56:09;101427.28;;;-9.06;36.82
42887;BME280;29032;56.028;92.904;2024-01-27T10:01:13;101435.88;;;-8.96;37.68
42887;BME280;29032;56.028;92.904;2024-01-27T10:06:17;101431.63;;;-8.97;37.79
42887;BME280;29032;56.028;92.904;2024-01-27T10:11:20;101443.69;;;-8.95;38.17
42887;BME280;29032;56.028;92.904;2024-01-27T10:16:24;101438.88;;;-9.09;38.63
42887;BME280;29032;56.028;92.904;2024-01-27T10:21:26;101440.00;;;-9.47;39.04
42887;BME280;29032;56.028;92.904;2024-01-27T10:26:31;101445.22;;;-9.61;39.20
42887;BME280;29032;56.028;92.904;2024-01-27T10:31:35;101447.56;;;-9.60;39.69
42887;BME280;29032;56.028;92.904;2024-01-27T10:36:40;101445.69;;;-9.55;39.17
42887;BME280;29032;56.028;92.904;2024-01-27T10:41:45;101457.50;;;-9.71;39.63
42887;BME280;29032;56.028;92.904;2024-01-27T10:46:49;101455.78;;;-9.82;39.52
42887;BME280;29032;56.028;92.904;2024-01-27T10:51:54;101454.88;;;-9.94;39.81
42887;BME280;29032;56.028;92.904;2024-01-27T10:56:57;101451.50;;;-10.13;40.08
42887;BME280;29032;56.028;92.904;2024-01-27T11:02:03;101453.44;;;-10.10;39.76
42887;BME280;29032;56.028;92.904;2024-01-27T11:07:06;101460.75;;;-10.15;39.88
42887;BME280;29032;56.028;92.904;2024-01-27T11:12:09;101463.56;;;-10.07;40.31
42887;BME280;29032;56.028;92.904;2024-01-27T11:17:13;101462.97;;;-10.20;39.34
42887;BME280;29032;56.028;92.904;2024-01-27T11:22:25;101466.66;;;-10.32;39.35
42887;BME280;29032;56.028;92.904;2024-01-27T11:27:28;101465.59;;;-10.50;39.64
42887;BME280;29032;56.028;92.904;2024-01-27T11:32:32;101465.25;;;-10.49;39.50
42887;BME280;29032;56.028;92.904;2024-01-27T11:37:34;101459.56;;;-10.40;39.11
42887;BME280;29032;56.028;92.904;2024-01-27T11:42:36;101459.03;;;-10.26;39.61
42887;BME280;29032;56.028;92.904;2024-01-27T11:47:40;101466.72;;;-10.28;39.54
42887;BME280;29032;56.028;92.904;2024-01-27T11:52:43;101453.94;;;-10.54;40.25
42887;BME280;29032;56.028;92.904;2024-01-27T11:57:45;101452.91;;;-10.69;40.25
42887;BME280;29032;56.028;92.904;2024-01-27T12:02:51;101445.28;;;-10.63;41.32
42887;BME280;29032;56.028;92.904;2024-01-27T12:07:54;101445.56;;;-10.46;41.14
42887;BME280;29032;56.028;92.904;2024-01-27T12:12:56;101449.59;;;-10.36;40.94
42887;BME280;29032;56.028;92.904;2024-01-27T12:18:00;101445.69;;;-10.38;41.08
42887;BME280;29032;56.028;92.904;2024-01-27T12:23:02;101430.63;;;-10.62;41.11
42887;BME280;29032;56.028;92.904;2024-01-27T12:28:06;101438.00;;;-10.82;41.77
42887;BME280;29032;56.028;92.904;2024-01-27T12:33:12;101444.81;;;-10.92;41.84
42887;BME280;29032;56.028;92.904;2024-01-27T12:38:14;101437.88;;;-10.89;42.20
42887;BME280;29032;56.028;92.904;2024-01-27T12:43:16;101439.72;;;-10.93;42.50
42887;BME280;29032;56.028;92.904;2024-01-27T12:48:20;101425.53;;;-11.10;42.72
42887;BME280;29032;56.028;92.904;2024-01-27T12:53:22;101423.34;;;-11.23;42.98
42887;BME280;29032;56.028;92.904;2024-01-27T12:58:24;101426.16;;;-10.97;42.63
42887;BME280;29032;56.028;92.904;2024-01-27T13:03:28;101426.78;;;-10.61;42.21
42887;BME280;29032;56.028;92.904;2024-01-27T13:08:30;101429.41;;;-10.42;40.67
42887;BME280;29032;56.028;92.904;2024-01-27T13:13:32;101424.00;;;-10.42;41.37
42887;BME280;29032;56.028;92.904;2024-01-27T13:18:36;101421.84;;;-10.56;41.50
42887;BME280;29032;56.028;92.904;2024-01-27T13:23:38;101408.78;;;-10.96;42.14
42887;BME280;29032;56.028;92.904;2024-01-27T13:28:41;101414.84;;;-11.26;42.27
42887;BME280;29032;56.028;92.904;2024-01-27T13:33:44;101416.25;;;-11.32;43.07
42887;BME280;29032;56.028;92.904;2024-01-27T13:38:46;101423.63;;;-11.09;42.27
42887;BME280;29032;56.028;92.904;2024-01-27T13:43:49;101417.16;;;-10.82;40.96
42887;BME280;29032;56.028;92.904;2024-01-27T13:48:52;101410.53;;;-10.61;40.79
42887;BME280;29032;56.028;92.904;2024-01-27T13:53:55;101411.50;;;-10.50;39.75
42887;BME280;29032;56.028;92.904;2024-01-27T13:58:57;101409.25;;;-10.45;39.91
42887;BME280;29032;56.028;92.904;2024-01-27T14:04:00;101418.69;;;-10.35;39.50
42887;BME280;29032;56.028;92.904;2024-01-27T14:09:03;101416.69;;;-10.38;39.54
42887;BME280;29032;56.028;92.904;2024-01-27T14:14:05;101419.41;;;-10.38;39.24
42887;BME280;29032;56.028;92.904;2024-01-27T14:19:09;101408.56;;;-10.38;38.29
42887;BME280;29032;56.028;92.904;2024-01-27T14:24:11;101410.53;;;-10.61;39.02
42887;BME280;29032;56.028;92.904;2024-01-27T14:29:13;101404.66;;;-10.90;39.45
42887;BME280;29032;56.028;92.904;2024-01-27T14:34:17;101404.16;;;-11.18;39.99
42887;BME280;29032;56.028;92.904;2024-01-27T14:39:19;101400.69;;;-11.58;40.26
42887;BME280;29032;56.028;92.904;2024-01-27T14:44:21;101394.97;;;-11.95;41.73
42887;BME280;29032;56.028;92.904;2024-01-27T14:49:25;101395.22;;;-12.19;41.78
42887;BME280;29032;56.028;92.904;2024-01-27T14:54:27;101400.63;;;-12.35;43.21
42887;BME280;29032;56.028;92.904;2024-01-27T14:59:29;101392.88;;;-12.37;42.75
42887;BME280;29032;56.028;92.904;2024-01-27T15:04:33;101386.44;;;-12.32;42.95
42887;BME280;29032;56.028;92.904;2024-01-27T15:09:35;101387.38;;;-12.24;43.31
42887;BME280;29032;56.028;92.904;2024-01-27T15:14:37;101385.84;;;-12.25;42.87
42887;BME280;29032;56.028;92.904;2024-01-27T15:19:41;101388.38;;;-12.32;43.66
42887;BME280;29032;56.028;92.904;2024-01-27T15:24:44;101390.81;;;-12.43;43.67
42887;BME280;29032;56.028;92.904;2024-01-27T15:29:46;101383.66;;;-12.36;43.76
42887;BME280;29032;56.028;92.904;2024-01-27T15:34:50;101372.19;;;-12.13;43.27
42887;BME280;29032;56.028;92.904;2024-01-27T15:39:52;101370.38;;;-11.90;42.33
42887;BME280;29032;56.028;92.904;2024-01-27T15:44:54;101364.91;;;-11.93;42.46
42887;BME280;29032;56.028;92.904;2024-01-27T15:49:58;101365.81;;;-11.86;42.40
42887;BME280;29032;56.028;92.904;2024-01-27T15:55:00;101369.66;;;-11.67;42.50
42887;BME280;29032;56.028;92.904;2024-01-27T16:00:03;101361.19;;;-11.46;42.02
42887;BME280;29032;56.028;92.904;2024-01-27T16:05:10;101362.59;;;-11.10;40.11
42887;BME280;29032;56.028;92.904;2024-01-27T16:10:12;101359.16;;;-11.30;41.66
42887;BME280;29032;56.028;92.904;2024-01-27T16:15:14;101366.94;;;-11.48;42.59
42887;BME280;29032;56.028;92.904;2024-01-27T16:20:18;101356.69;;;-11.39;42.89
42887;BME280;29032;56.028;92.904;2024-01-27T16:25:20;101348.19;;;-11.41;42.77
42887;BME280;29032;56.028;92.904;2024-01-27T16:30:22;101351.16;;;-11.46;43.20
42887;BME280;29032;56.028;92.904;2024-01-27T16:35:26;101352.72;;;-11.45;42.99
42887;BME280;29032;56.028;92.904;2024-01-27T16:40:28;101352.97;;;-11.31;42.95
42887;BME280;29032;56.028;92.904;2024-01-27T16:45:31;101344.28;;;-11.20;42.48
42887;BME280;29032;56.028;92.904;2024-01-27T16:50:34;101343.81;;;-11.03;42.67
42887;BME280;29032;56.028;92.904;2024-01-27T16:55:36;101334.66;;;-10.95;41.96
42887;BME280;29032;56.028;92.904;2024-01-27T17:00:39;101330.94;;;-10.87;42.22
42887;BME280;29032;56.028;92.904;2024-01-27T17:05:42;101343.00;;;-10.81;41.96
42887;BME280;29032;56.028;92.904;2024-01-27T17:10:45;101336.19;;;-10.98;42.14
42887;BME280;29032;56.028;92.904;2024-01-27T17:15:47;101332.25;;;-11.23;43.03
42887;BME280;29032;56.028;92.904;2024-01-27T17:20:51;101339.97;;;-11.25;42.82
42887;BME280;29032;56.028;92.904;2024-01-27T17:25:53;101337.78;;;-11.39;43.17
42887;BME280;29032;56.028;92.904;2024-01-27T17:30:55;101338.66;;;-11.54;43.14
42887;BME280;29032;56.028;92.904;2024-01-27T17:35:59;101343.06;;;-11.46;43.55
42887;BME280;29032;56.028;92.904;2024-01-27T17:41:01;101334.34;;;-11.36;43.79
42887;BME280;29032;56.028;92.904;2024-01-27T17:46:03;101326.09;;;-11.23;42.35
42887;BME280;29032;56.028;92.904;2024-01-27T17:51:09;101337.91;;;-11.09;42.37
42887;BME280;29032;56.028;92.904;2024-01-27T17:56:20;101328.50;;;-11.18;41.69
42887;BME280;29032;56.028;92.904;2024-01-27T18:01:22;101314.19;;;-11.42;42.47
42887;BME280;29032;56.028;92.904;2024-01-27T18:06:26;101311.25;;;-11.56;42.19
42887;BME280;29032;56.028;92.904;2024-01-27T18:11:28;101309.41;;;-11.71;42.90
42887;BME280;29032;56.028;92.904;2024-01-27T18:16:31;101300.75;;;-11.81;42.76
42887;BME280;29032;56.028;92.904;2024-01-27T18:21:34;101287.72;;;-11.98;43.37
42887;BME280;29032;56.028;92.904;2024-01-27T18:26:36;101295.25;;;-12.07;43.11
42887;BME280;29032;56.028;92.904;2024-01-27T18:31:39;101284.03;;;-12.09;43.30
42887;BME280;29032;56.028;92.904;2024-01-27T18:36:42;101277.63;;;-12.20;43.92
42887;BME280;29032;56.028;92.904;2024-01-27T18:41:45;101283.47;;;-12.18;43.87
42887;BME280;29032;56.028;92.904;2024-01-27T18:46:47;101285.56;;;-12.27;42.83
42887;BME280;29032;56.028;92.904;2024-01-27T18:51:52;101282.19;;;-12.05;42.15
42887;BME280;29032;56.028;92.904;2024-01-27T18:56:54;101278.06;;;-12.18;42.58
42887;BME280;29032;56.028;92.904;2024-01-27T19:01:56;101283.84;;;-12.20;42.82
42887;BME280;29032;56.028;92.904;2024-01-27T19:07:00;101287.44;;;-12.12;43.09
42887;BME280;29032;56.028;92.904;2024-01-27T19:12:03;101284.88;;;-12.24;42.64
42887;BME280;29032;56.028;92.904;2024-01-27T19:17:05;101278.63;;;-12.28;42.83
42887;BME280;29032;56.028;92.904;2024-01-27T19:22:09;101279.28;;;-12.16;43.14
42887;BME280;29032;56.028;92.904;2024-01-27T19:27:11;101270.91;;;-12.11;42.34
42887;BME280;29032;56.028;92.904;2024-01-27T19:32:13;101270.41;;;-11.97;42.34
42887;BME280;29032;56.028;92.904;2024-01-27T19:37:16;101265.41;;;-11.95;42.30
42887;BME280;29032;56.028;92.904;2024-01-27T19:42:19;101268.56;;;-12.12;43.15
42887;BME280;29032;56.028;92.904;2024-01-27T19:47:21;101266.28;;;-12.10;42.81
42887;BME280;29032;56.028;92.904;2024-01-27T19:52:24;101270.53;;;-12.09;42.63
42887;BME280;29032;56.028;92.904;2024-01-27T19:57:27;101268.97;;;-12.10;43.10
42887;BME280;29032;56.028;92.904;2024-01-27T20:02:29;101266.69;;;-12.08;42.85
42887;BME280;29032;56.028;92.904;2024-01-27T20:07:32;101256.28;;;-11.87;42.47
42887;BME280;29032;56.028;92.904;2024-01-27T20:12:35;101260.88;;;-11.68;41.27
42887;BME280;29032;56.028;92.904;2024-01-27T20:17:37;101254.66;;;-11.49;41.64
42887;BME280;29032;56.028;92.904;2024-01-27T20:22:41;101245.69;;;-11.30;41.31
42887;BME280;29032;56.028;92.904;2024-01-27T20:27:43;101242.28;;;-11.27;40.97
42887;BME280;29032;56.028;92.904;2024-01-27T20:32:45;101243.84;;;-11.49;40.84
42887;BME280;29032;56.028;92.904;2024-01-27T20:37:48;101237.00;;;-11.43;41.80
42887;BME280;29032;56.028;92.904;2024-01-27T20:42:51;101238.09;;;-11.47;41.14
42887;BME280;29032;56.028;92.904;2024-01-27T20:47:53;101242.22;;;-11.54;41.08
42887;BME280;29032;56.028;92.904;2024-01-27T20:52:56;101222.84;;;-11.59;41.37
42887;BME280;29032;56.028;92.904;2024-01-27T20:57:58;101202.91;;;-11.74;40.84
42887;BME280;29032;56.028;92.904;2024-01-27T21:03:01;101206.81;;;-11.94;41.10
42887;BME280;29032;56.028;92.904;2024-01-27T21:08:05;101202.97;;;-12.36;41.85
42887;BME280;29032;56.028;92.904;2024-01-27T21:13:07;101204.53;;;-12.54;42.21
42887;BME280;29032;56.028;92.904;2024-01-27T21:18:09;101198.41;;;-12.70;41.99
42887;BME280;29032;56.028;92.904;2024-01-27T21:23:13;101192.88;;;-12.77;42.87
42887;BME280;29032;56.028;92.904;2024-01-27T21:28:15;101193.44;;;-12.87;42.26
42887;BME280;29032;56.028;92.904;2024-01-27T21:33:17;101198.34;;;-12.74;42.34
42887;BME280;29032;56.028;92.904;2024-01-27T21:38:21;101192.81;;;-12.61;42.88
42887;BME280;29032;56.028;92.904;2024-01-27T21:43:23;101196.44;;;-12.54;41.97
42887;BME280;29032;56.028;92.904;2024-01-27T21:48:25;101193.72;;;-12.34;41.90
42887;BME280;29032;56.028;92.904;2024-01-27T21:53:29;101190.25;;;-12.16;40.88
42887;BME280;29032;56.028;92.904;2024-01-27T21:58:31;101195.72;;;-12.12;40.85
42887;BME280;29032;56.028;92.904;2024-01-27T22:03:33;101193.94;;;-12.24;40.85
42887;BME280;29032;56.028;92.904;2024-01-27T22:08:37;101187.78;;;-12.24;41.29
42887;BME280;29032;56.028;92.904;2024-01-27T22:13:39;101189.84;;;-12.37;40.96
42887;BME280;29032;56.028;92.904;2024-01-27T22:18:41;101201.13;;;-12.31;41.11
42887;BME280;29032;56.028;92.904;2024-01-27T22:23:45;101192.56;;;-12.14;40.76
42887;BME280;29032;56.028;92.904;2024-01-27T22:28:47;101181.59;;;-12.05;41.07
42887;BME280;29032;56.028;92.904;2024-01-27T22:33:49;101176.00;;;-11.93;40.52
42887;BME280;29032;56.028;92.904;2024-01-27T22:38:53;101182.72;;;-11.84;40.43
42887;BME280;29032;56.028;92.904;2024-01-27T22:43:55;101176.88;;;-11.86;40.50
42887;BME280;29032;56.028;92.904;2024-01-27T22:48:57;101178.31;;;-12.15;40.42
42887;BME280;29032;56.028;92.904;2024-01-27T22:54:01;101178.00;;;-12.32;41.03
42887;BME280;29032;56.028;92.904;2024-01-27T22:59:03;101177.22;;;-12.52;41.67
42887;BME280;29032;56.028;92.904;2024-01-27T23:04:06;101180.41;;;-12.47;41.28
42887;BME280;29032;56.028;92.904;2024-01-27T23:09:10;101176.13;;;-12.28;41.19
42887;BME280;29032;56.028;92.904;2024-01-27T23:14:12;101171.47;;;-12.31;40.38
42887;BME280;29032;56.028;92.904;2024-01-27T23:19:14;101176.50;;;-12.69;40.84
42887;BME280;29032;56.028;92.904;2024-01-27T23:24:18;101177.06;;;-12.79;41.41
42887;BME280;29032;56.028;92.904;2024-01-27T23:29:20;101174.44;;;-12.75;41.38
42887;BME280;29032;56.028;92.904;2024-01-27T23:34:22;101170.47;;;-12.81;41.15
42887;BME280;29032;56.028;92.904;2024-01-27T23:39:25;101170.25;;;-12.73;40.60
42887;BME280;29032;56.028;92.904;2024-01-27T23:44:28;101173.53;;;-12.83;41.59
42887;BME280;29032;56.028;92.904;2024-01-27T23:49:30;101173.94;;;-12.81;40.90
42887;BME280;29032;56.028;92.904;2024-01-27T23:54:33;101170.53;;;-12.78;41.64
42887;BME280;29032;56.028;92.904;2024-01-27T23:59:35;101177.25;;;-12.87;42.03
